sensor_id;sensor_type;location;lat;lon;timestamp;P1;durP1;ratioP1;P2;durP2;ratioP2
19569;SDS011;9931;51.458;7.256;2023-06-24T00:02:22;14.68;;;1.33;;
19569;SDS011;9931;51.458;7.256;2023-06-24T00:04:49;17.08;;;1.42;;
19569;SDS011;9931;51.458;7.256;2023-06-24T00:07:14;36.50;;;2.53;;
19569;SDS011;9931;51.458;7.256;2023-06-24T00:09:39;18.52;;;1.60;;
19569;SDS011;9931;51.458;7.256;2023-06-24T00:12:04;21.25;;;1.80;;
19569;SDS011;9931;51.458;7.256;2023-06-24T00:14:30;27.98;;;2.22;;
19569;SDS011;9931;51.458;7.256;2023-06-24T00:16:55;65.23;;;4.27;;
19569;SDS011;9931;51.458;7.256;2023-06-24T00:19:21;53.22;;;3.72;;
19569;SDS011;9931;51.458;7.256;2023-06-24T00:21:48;21.60;;;1.88;;
19569;SDS011;9931;51.458;7.256;2023-06-24T00:24:13;22.42;;;1.92;;
19569;SDS011;9931;51.458;7.256;2023-06-24T00:26:38;117.35;;;7.32;;
19569;SDS011;9931;51.458;7.256;2023-06-24T00:29:04;14.77;;;1.35;;
19569;SDS011;9931;51.458;7.256;2023-06-24T00:31:29;47.43;;;3.43;;
19569;SDS011;9931;51.458;7.256;2023-06-24T00:33:54;21.10;;;1.77;;
19569;SDS011;9931;51.458;7.256;2023-06-24T00:36:20;17.80;;;1.58;;
19569;SDS011;9931;51.458;7.256;2023-06-24T00:38:45;45.60;;;3.20;;
19569;SDS011;9931;51.458;7.256;2023-06-24T00:41:10;15.23;;;1.40;;
19569;SDS011;9931;51.458;7.256;2023-06-24T00:43:35;20.58;;;1.65;;
19569;SDS011;9931;51.458;7.256;2023-06-24T00:46:01;23.65;;;2.05;;
19569;SDS011;9931;51.458;7.256;2023-06-24T00:48:26;31.38;;;2.45;;
19569;SDS011;9931;51.458;7.256;2023-06-24T00:50:51;19.02;;;1.63;;
19569;SDS011;9931;51.458;7.256;2023-06-24T00:53:17;9.68;;;0.93;;
19569;SDS011;9931;51.458;7.256;2023-06-24T00:55:42;83.28;;;5.93;;
19569;SDS011;9931;51.458;7.256;2023-06-24T00:58:09;36.28;;;2.78;;
19569;SDS011;9931;51.458;7.256;2023-06-24T01:00:34;23.98;;;1.90;;
19569;SDS011;9931;51.458;7.256;2023-06-24T01:02:59;25.05;;;2.08;;
19569;SDS011;9931;51.458;7.256;2023-06-24T01:05:25;23.25;;;1.90;;
19569;SDS011;9931;51.458;7.256;2023-06-24T01:07:51;18.67;;;1.60;;
19569;SDS011;9931;51.458;7.256;2023-06-24T01:10:20;12.93;;;1.20;;
19569;SDS011;9931;51.458;7.256;2023-06-24T01:12:47;20.35;;;1.70;;
19569;SDS011;9931;51.458;7.256;2023-06-24T01:15:12;25.70;;;2.08;;
19569;SDS011;9931;51.458;7.256;2023-06-24T01:17:43;23.38;;;1.88;;
19569;SDS011;9931;51.458;7.256;2023-06-24T01:20:10;35.08;;;2.65;;
19569;SDS011;9931;51.458;7.256;2023-06-24T01:27:57;18.17;;;1.63;;
19569;SDS011;9931;51.458;7.256;2023-06-24T01:33:04;45.90;;;3.30;;
19569;SDS011;9931;51.458;7.256;2023-06-24T01:35:33;70.40;;;4.75;;
19569;SDS011;9931;51.458;7.256;2023-06-24T01:38:00;21.17;;;1.80;;
19569;SDS011;9931;51.458;7.256;2023-06-24T01:42:51;23.85;;;2.10;;
19569;SDS011;9931;51.458;7.256;2023-06-24T01:45:21;21.88;;;1.88;;
19569;SDS011;9931;51.458;7.256;2023-06-24T01:47:48;18.58;;;1.63;;
19569;SDS011;9931;51.458;7.256;2023-06-24T01:50:16;80.68;;;5.43;;
19569;SDS011;9931;51.458;7.256;2023-06-24T01:52:44;20.42;;;1.77;;
19569;SDS011;9931;51.458;7.256;2023-06-24T01:55:10;19.15;;;1.73;;
19569;SDS011;9931;51.458;7.256;2023-06-24T01:57:37;26.30;;;2.05;;
19569;SDS011;9931;51.458;7.256;2023-06-24T02:00:03;20.00;;;1.80;;
19569;SDS011;9931;51.458;7.256;2023-06-24T02:02:31;34.17;;;2.67;;
19569;SDS011;9931;51.458;7.256;2023-06-24T02:04:57;25.83;;;2.08;;
19569;SDS011;9931;51.458;7.256;2023-06-24T02:07:23;64.95;;;4.43;;
19569;SDS011;9931;51.458;7.256;2023-06-24T02:09:48;57.45;;;4.03;;
19569;SDS011;9931;51.458;7.256;2023-06-24T02:12:14;23.42;;;1.98;;
19569;SDS011;9931;51.458;7.256;2023-06-24T02:14:40;21.73;;;1.83;;
19569;SDS011;9931;51.458;7.256;2023-06-24T02:17:06;23.20;;;1.92;;
19569;SDS011;9931;51.458;7.256;2023-06-24T02:19:33;19.58;;;1.67;;
19569;SDS011;9931;51.458;7.256;2023-06-24T02:21:58;32.33;;;2.45;;
19569;SDS011;9931;51.458;7.256;2023-06-24T02:24:24;25.27;;;2.08;;
19569;SDS011;9931;51.458;7.256;2023-06-24T02:26:52;19.65;;;1.65;;
19569;SDS011;9931;51.458;7.256;2023-06-24T02:29:18;21.48;;;1.80;;
19569;SDS011;9931;51.458;7.256;2023-06-24T02:31:44;46.03;;;3.40;;
19569;SDS011;9931;51.458;7.256;2023-06-24T02:34:09;48.33;;;3.45;;
19569;SDS011;9931;51.458;7.256;2023-06-24T02:36:34;27.73;;;2.28;;
19569;SDS011;9931;51.458;7.256;2023-06-24T02:39:00;64.50;;;4.20;;
19569;SDS011;9931;51.458;7.256;2023-06-24T02:41:25;23.45;;;2.00;;
19569;SDS011;9931;51.458;7.256;2023-06-24T02:43:50;44.40;;;3.23;;
19569;SDS011;9931;51.458;7.256;2023-06-24T02:46:16;23.75;;;1.95;;
19569;SDS011;9931;51.458;7.256;2023-06-24T02:48:42;24.10;;;2.00;;
19569;SDS011;9931;51.458;7.256;2023-06-24T02:51:08;46.20;;;3.35;;
19569;SDS011;9931;51.458;7.256;2023-06-24T02:53:35;28.45;;;2.28;;
19569;SDS011;9931;51.458;7.256;2023-06-24T02:56:00;25.48;;;2.08;;
19569;SDS011;9931;51.458;7.256;2023-06-24T02:58:25;51.40;;;3.50;;
19569;SDS011;9931;51.458;7.256;2023-06-24T03:00:57;21.63;;;1.90;;
19569;SDS011;9931;51.458;7.256;2023-06-24T03:03:23;40.38;;;3.13;;
19569;SDS011;9931;51.458;7.256;2023-06-24T03:05:49;24.45;;;2.00;;
19569;SDS011;9931;51.458;7.256;2023-06-24T03:08:15;25.65;;;2.08;;
19569;SDS011;9931;51.458;7.256;2023-06-24T03:10:40;52.65;;;3.80;;
19569;SDS011;9931;51.458;7.256;2023-06-24T03:13:06;29.30;;;2.30;;
19569;SDS011;9931;51.458;7.256;2023-06-24T03:15:31;89.20;;;6.27;;
19569;SDS011;9931;51.458;7.256;2023-06-24T03:17:56;90.82;;;5.85;;
19569;SDS011;9931;51.458;7.256;2023-06-24T03:20:21;47.80;;;3.50;;
19569;SDS011;9931;51.458;7.256;2023-06-24T03:22:47;21.15;;;1.75;;
19569;SDS011;9931;51.458;7.256;2023-06-24T03:25:12;28.40;;;2.30;;
19569;SDS011;9931;51.458;7.256;2023-06-24T03:27:37;38.95;;;2.88;;
19569;SDS011;9931;51.458;7.256;2023-06-24T03:30:03;22.77;;;1.92;;
19569;SDS011;9931;51.458;7.256;2023-06-24T03:32:28;25.02;;;2.05;;
19569;SDS011;9931;51.458;7.256;2023-06-24T03:34:53;23.15;;;1.95;;
19569;SDS011;9931;51.458;7.256;2023-06-24T03:37:18;57.27;;;3.57;;
19569;SDS011;9931;51.458;7.256;2023-06-24T03:39:44;14.23;;;1.25;;
19569;SDS011;9931;51.458;7.256;2023-06-24T03:42:09;21.17;;;1.60;;
19569;SDS011;9931;51.458;7.256;2023-06-24T03:44:34;12.50;;;1.13;;
19569;SDS011;9931;51.458;7.256;2023-06-24T03:46:59;24.08;;;1.73;;
19569;SDS011;9931;51.458;7.256;2023-06-24T03:49:24;20.45;;;1.63;;
19569;SDS011;9931;51.458;7.256;2023-06-24T03:51:49;14.30;;;1.30;;
19569;SDS011;9931;51.458;7.256;2023-06-24T03:54:15;21.88;;;1.70;;
19569;SDS011;9931;51.458;7.256;2023-06-24T03:56:40;16.10;;;1.30;;
19569;SDS011;9931;51.458;7.256;2023-06-24T03:59:05;13.43;;;1.20;;
19569;SDS011;9931;51.458;7.256;2023-06-24T04:01:31;26.02;;;2.05;;
19569;SDS011;9931;51.458;7.256;2023-06-24T04:03:56;6.07;;;0.73;;
19569;SDS011;9931;51.458;7.256;2023-06-24T04:06:22;13.10;;;1.27;;
19569;SDS011;9931;51.458;7.256;2023-06-24T04:08:47;20.90;;;1.73;;
19569;SDS011;9931;51.458;7.256;2023-06-24T04:11:13;10.68;;;1.02;;
19569;SDS011;9931;51.458;7.256;2023-06-24T04:13:39;17.00;;;1.42;;
19569;SDS011;9931;51.458;7.256;2023-06-24T04:16:07;8.07;;;0.93;;
19569;SDS011;9931;51.458;7.256;2023-06-24T04:18:32;34.80;;;2.58;;
19569;SDS011;9931;51.458;7.256;2023-06-24T04:20:57;24.17;;;1.80;;
19569;SDS011;9931;51.458;7.256;2023-06-24T04:23:22;10.53;;;1.03;;
19569;SDS011;9931;51.458;7.256;2023-06-24T04:25:48;15.57;;;1.38;;
19569;SDS011;9931;51.458;7.256;2023-06-24T04:28:13;14.82;;;1.35;;
19569;SDS011;9931;51.458;7.256;2023-06-24T04:30:39;14.90;;;1.20;;
19569;SDS011;9931;51.458;7.256;2023-06-24T04:33:04;14.25;;;1.30;;
19569;SDS011;9931;51.458;7.256;2023-06-24T04:35:29;21.67;;;1.75;;
19569;SDS011;9931;51.458;7.256;2023-06-24T04:37:55;14.40;;;1.20;;
19569;SDS011;9931;51.458;7.256;2023-06-24T04:40:20;22.17;;;1.70;;
19569;SDS011;9931;51.458;7.256;2023-06-24T04:42:46;7.03;;;0.77;;
19569;SDS011;9931;51.458;7.256;2023-06-24T04:45:11;18.02;;;1.48;;
19569;SDS011;9931;51.458;7.256;2023-06-24T04:47:36;8.23;;;0.85;;
19569;SDS011;9931;51.458;7.256;2023-06-24T04:50:02;17.70;;;1.45;;
19569;SDS011;9931;51.458;7.256;2023-06-24T04:52:27;30.13;;;2.35;;
19569;SDS011;9931;51.458;7.256;2023-06-24T04:54:52;19.33;;;1.67;;
19569;SDS011;9931;51.458;7.256;2023-06-24T04:57:26;56.40;;;3.73;;
19569;SDS011;9931;51.458;7.256;2023-06-24T04:59:51;18.77;;;1.58;;
19569;SDS011;9931;51.458;7.256;2023-06-24T05:02:19;33.20;;;2.53;;
19569;SDS011;9931;51.458;7.256;2023-06-24T05:04:45;13.98;;;1.27;;
19569;SDS011;9931;51.458;7.256;2023-06-24T05:07:10;54.08;;;3.63;;
19569;SDS011;9931;51.458;7.256;2023-06-24T05:09:35;18.42;;;1.55;;
19569;SDS011;9931;51.458;7.256;2023-06-24T05:12:03;14.48;;;1.27;;
19569;SDS011;9931;51.458;7.256;2023-06-24T05:14:28;28.85;;;2.15;;
19569;SDS011;9931;51.458;7.256;2023-06-24T05:16:53;13.88;;;1.30;;
19569;SDS011;9931;51.458;7.256;2023-06-24T05:19:18;22.17;;;1.90;;
19569;SDS011;9931;51.458;7.256;2023-06-24T05:21:44;16.63;;;1.50;;
19569;SDS011;9931;51.458;7.256;2023-06-24T05:24:09;4.80;;;0.60;;
19569;SDS011;9931;51.458;7.256;2023-06-24T05:26:34;33.70;;;2.47;;
19569;SDS011;9931;51.458;7.256;2023-06-24T05:28:59;55.67;;;3.83;;
19569;SDS011;9931;51.458;7.256;2023-06-24T05:31:25;15.27;;;1.40;;
19569;SDS011;9931;51.458;7.256;2023-06-24T05:33:50;20.85;;;1.77;;
19569;SDS011;9931;51.458;7.256;2023-06-24T05:36:15;18.03;;;1.60;;
19569;SDS011;9931;51.458;7.256;2023-06-24T05:38:40;21.73;;;1.77;;
19569;SDS011;9931;51.458;7.256;2023-06-24T05:41:05;16.60;;;1.43;;
19569;SDS011;9931;51.458;7.256;2023-06-24T05:43:31;31.10;;;2.30;;
19569;SDS011;9931;51.458;7.256;2023-06-24T05:45:56;27.13;;;2.20;;
19569;SDS011;9931;51.458;7.256;2023-06-24T05:48:21;35.70;;;2.72;;
19569;SDS011;9931;51.458;7.256;2023-06-24T05:50:46;33.22;;;2.53;;
19569;SDS011;9931;51.458;7.256;2023-06-24T05:53:12;24.13;;;2.00;;
19569;SDS011;9931;51.458;7.256;2023-06-24T05:55:37;74.80;;;5.37;;
19569;SDS011;9931;51.458;7.256;2023-06-24T05:58:02;22.85;;;1.88;;
19569;SDS011;9931;51.458;7.256;2023-06-24T06:00:27;20.20;;;1.83;;
19569;SDS011;9931;51.458;7.256;2023-06-24T06:02:53;41.08;;;3.17;;
19569;SDS011;9931;51.458;7.256;2023-06-24T06:05:18;31.55;;;2.40;;
19569;SDS011;9931;51.458;7.256;2023-06-24T06:07:43;31.42;;;2.47;;
19569;SDS011;9931;51.458;7.256;2023-06-24T06:10:08;21.50;;;1.80;;
19569;SDS011;9931;51.458;7.256;2023-06-24T06:12:34;17.88;;;1.67;;
19569;SDS011;9931;51.458;7.256;2023-06-24T06:14:59;20.53;;;1.80;;
19569;SDS011;9931;51.458;7.256;2023-06-24T06:17:24;20.60;;;1.80;;
19569;SDS011;9931;51.458;7.256;2023-06-24T06:19:49;19.70;;;1.52;;
19569;SDS011;9931;51.458;7.256;2023-06-24T06:22:15;1.55;;;0.45;;
19569;SDS011;9931;51.458;7.256;2023-06-24T06:24:40;20.30;;;1.75;;
19569;SDS011;9931;51.458;7.256;2023-06-24T06:27:09;16.35;;;1.50;;
19569;SDS011;9931;51.458;7.256;2023-06-24T06:29:34;24.73;;;2.08;;
19569;SDS011;9931;51.458;7.256;2023-06-24T06:31:59;14.77;;;1.27;;
19569;SDS011;9931;51.458;7.256;2023-06-24T06:34:24;19.77;;;1.77;;
19569;SDS011;9931;51.458;7.256;2023-06-24T06:36:50;19.15;;;1.65;;
19569;SDS011;9931;51.458;7.256;2023-06-24T06:39:15;16.73;;;1.52;;
19569;SDS011;9931;51.458;7.256;2023-06-24T06:41:41;8.50;;;0.90;;
19569;SDS011;9931;51.458;7.256;2023-06-24T06:44:06;28.33;;;2.27;;
19569;SDS011;9931;51.458;7.256;2023-06-24T06:46:32;20.02;;;1.73;;
19569;SDS011;9931;51.458;7.256;2023-06-24T06:48:58;14.35;;;1.35;;
19569;SDS011;9931;51.458;7.256;2023-06-24T06:51:24;17.73;;;1.60;;
19569;SDS011;9931;51.458;7.256;2023-06-24T06:53:50;15.38;;;1.38;;
19569;SDS011;9931;51.458;7.256;2023-06-24T06:56:16;17.20;;;1.50;;
19569;SDS011;9931;51.458;7.256;2023-06-24T06:58:41;15.93;;;1.50;;
19569;SDS011;9931;51.458;7.256;2023-06-24T07:01:06;5.53;;;0.70;;
19569;SDS011;9931;51.458;7.256;2023-06-24T07:03:32;4.80;;;0.73;;
19569;SDS011;9931;51.458;7.256;2023-06-24T07:05:57;17.48;;;1.58;;
19569;SDS011;9931;51.458;7.256;2023-06-24T07:08:22;35.17;;;2.78;;
19569;SDS011;9931;51.458;7.256;2023-06-24T07:10:47;16.17;;;1.50;;
19569;SDS011;9931;51.458;7.256;2023-06-24T07:13:13;17.23;;;1.60;;
19569;SDS011;9931;51.458;7.256;2023-06-24T07:15:38;59.72;;;4.32;;
19569;SDS011;9931;51.458;7.256;2023-06-24T07:18:03;23.83;;;2.10;;
19569;SDS011;9931;51.458;7.256;2023-06-24T07:20:28;26.17;;;2.27;;
19569;SDS011;9931;51.458;7.256;2023-06-24T07:22:54;13.10;;;1.43;;
19569;SDS011;9931;51.458;7.256;2023-06-24T07:25:19;14.20;;;1.60;;
19569;SDS011;9931;51.458;7.256;2023-06-24T07:27:44;17.42;;;1.83;;
19569;SDS011;9931;51.458;7.256;2023-06-24T07:30:09;20.23;;;2.03;;
19569;SDS011;9931;51.458;7.256;2023-06-24T07:32:34;21.40;;;2.10;;
19569;SDS011;9931;51.458;7.256;2023-06-24T07:35:00;39.75;;;3.40;;
19569;SDS011;9931;51.458;7.256;2023-06-24T07:37:25;27.03;;;2.73;;
19569;SDS011;9931;51.458;7.256;2023-06-24T07:39:50;30.80;;;2.95;;
19569;SDS011;9931;51.458;7.256;2023-06-24T07:42:15;18.33;;;2.40;;
19569;SDS011;9931;51.458;7.256;2023-06-24T07:44:47;18.88;;;2.58;;
19569;SDS011;9931;51.458;7.256;2023-06-24T07:47:13;31.17;;;3.55;;
19569;SDS011;9931;51.458;7.256;2023-06-24T07:49:38;9.27;;;2.25;;
19569;SDS011;9931;51.458;7.256;2023-06-24T07:52:03;8.95;;;2.63;;
19569;SDS011;9931;51.458;7.256;2023-06-24T07:54:29;25.73;;;3.92;;
19569;SDS011;9931;51.458;7.256;2023-06-24T07:56:54;20.85;;;3.38;;
19569;SDS011;9931;51.458;7.256;2023-06-24T07:59:20;15.77;;;2.87;;
19569;SDS011;9931;51.458;7.256;2023-06-24T08:01:45;19.70;;;3.22;;
19569;SDS011;9931;51.458;7.256;2023-06-24T08:04:10;20.40;;;3.03;;
19569;SDS011;9931;51.458;7.256;2023-06-24T08:06:35;24.38;;;3.78;;
19569;SDS011;9931;51.458;7.256;2023-06-24T08:09:00;18.85;;;3.33;;
19569;SDS011;9931;51.458;7.256;2023-06-24T08:11:26;28.42;;;3.83;;
19569;SDS011;9931;51.458;7.256;2023-06-24T08:13:51;19.10;;;3.80;;
19569;SDS011;9931;51.458;7.256;2023-06-24T08:16:17;18.23;;;4.67;;
19569;SDS011;9931;51.458;7.256;2023-06-24T08:18:42;23.67;;;5.38;;
19569;SDS011;9931;51.458;7.256;2023-06-24T08:21:08;26.13;;;6.63;;
19569;SDS011;9931;51.458;7.256;2023-06-24T08:23:34;32.33;;;7.97;;
19569;SDS011;9931;51.458;7.256;2023-06-24T08:29:02;22.23;;;4.53;;
19569;SDS011;9931;51.458;7.256;2023-06-24T08:31:27;28.90;;;6.38;;
19569;SDS011;9931;51.458;7.256;2023-06-24T08:33:52;16.37;;;5.90;;
19569;SDS011;9931;51.458;7.256;2023-06-24T08:36:25;17.23;;;5.53;;
19569;SDS011;9931;51.458;7.256;2023-06-24T08:38:51;21.15;;;7.28;;
19569;SDS011;9931;51.458;7.256;2023-06-24T08:41:16;25.85;;;7.30;;
19569;SDS011;9931;51.458;7.256;2023-06-24T08:43:41;25.93;;;7.03;;
19569;SDS011;9931;51.458;7.256;2023-06-24T08:46:08;30.08;;;7.78;;
19569;SDS011;9931;51.458;7.256;2023-06-24T08:48:33;17.88;;;8.55;;
19569;SDS011;9931;51.458;7.256;2023-06-24T08:51:04;23.10;;;8.27;;
19569;SDS011;9931;51.458;7.256;2023-06-24T08:53:32;20.70;;;7.68;;
19569;SDS011;9931;51.458;7.256;2023-06-24T08:55:57;21.40;;;7.53;;
19569;SDS011;9931;51.458;7.256;2023-06-24T08:58:23;11.57;;;8.30;;
19569;SDS011;9931;51.458;7.256;2023-06-24T09:00:48;22.05;;;8.60;;
19569;SDS011;9931;51.458;7.256;2023-06-24T09:03:13;25.73;;;9.38;;
19569;SDS011;9931;51.458;7.256;2023-06-24T09:05:38;64.50;;;12.23;;
19569;SDS011;9931;51.458;7.256;2023-06-24T09:08:04;12.35;;;7.65;;
19569;SDS011;9931;51.458;7.256;2023-06-24T09:10:30;24.70;;;7.85;;
19569;SDS011;9931;51.458;7.256;2023-06-24T09:12:59;21.42;;;8.88;;
19569;SDS011;9931;51.458;7.256;2023-06-24T09:15:25;21.02;;;8.00;;
19569;SDS011;9931;51.458;7.256;2023-06-24T09:17:50;29.85;;;9.73;;
19569;SDS011;9931;51.458;7.256;2023-06-24T09:20:15;27.33;;;7.90;;
19569;SDS011;9931;51.458;7.256;2023-06-24T09:22:45;22.23;;;7.97;;
19569;SDS011;9931;51.458;7.256;2023-06-24T09:25:13;23.65;;;9.13;;
19569;SDS011;9931;51.458;7.256;2023-06-24T09:27:41;30.15;;;9.73;;
19569;SDS011;9931;51.458;7.256;2023-06-24T09:30:21;19.98;;;8.38;;
19569;SDS011;9931;51.458;7.256;2023-06-24T09:32:47;18.45;;;10.55;;
19569;SDS011;9931;51.458;7.256;2023-06-24T09:35:12;28.88;;;15.35;;
19569;SDS011;9931;51.458;7.256;2023-06-24T09:37:38;47.72;;;19.60;;
19569;SDS011;9931;51.458;7.256;2023-06-24T09:40:03;25.55;;;14.35;;
19569;SDS011;9931;51.458;7.256;2023-06-24T09:42:30;53.38;;;18.52;;
19569;SDS011;9931;51.458;7.256;2023-06-24T09:44:56;30.27;;;18.00;;
19569;SDS011;9931;51.458;7.256;2023-06-24T09:47:21;51.15;;;17.08;;
19569;SDS011;9931;51.458;7.256;2023-06-24T09:49:50;14.48;;;12.93;;
19569;SDS011;9931;51.458;7.256;2023-06-24T09:52:15;20.50;;;12.15;;
19569;SDS011;9931;51.458;7.256;2023-06-24T09:54:41;27.27;;;14.05;;
19569;SDS011;9931;51.458;7.256;2023-06-24T09:57:08;20.60;;;18.45;;
19569;SDS011;9931;51.458;7.256;2023-06-24T09:59:34;30.73;;;20.25;;
19569;SDS011;9931;51.458;7.256;2023-06-24T10:02:00;21.15;;;19.05;;
19569;SDS011;9931;51.458;7.256;2023-06-24T10:04:25;38.10;;;22.65;;
19569;SDS011;9931;51.458;7.256;2023-06-24T10:06:52;26.00;;;20.88;;
19569;SDS011;9931;51.458;7.256;2023-06-24T10:09:17;29.92;;;26.88;;
19569;SDS011;9931;51.458;7.256;2023-06-24T10:11:44;30.63;;;27.13;;
19569;SDS011;9931;51.458;7.256;2023-06-24T10:14:10;35.42;;;31.80;;
19569;SDS011;9931;51.458;7.256;2023-06-24T10:16:35;34.65;;;30.88;;
19569;SDS011;9931;51.458;7.256;2023-06-24T10:19:01;36.00;;;33.30;;
19569;SDS011;9931;51.458;7.256;2023-06-24T10:24:27;52.10;;;45.30;;
19569;SDS011;9931;51.458;7.256;2023-06-24T10:26:52;47.80;;;43.58;;
19569;SDS011;9931;51.458;7.256;2023-06-24T10:29:18;54.10;;;50.40;;
19569;SDS011;9931;51.458;7.256;2023-06-24T10:42:24;66.72;;;61.38;;
19569;SDS011;9931;51.458;7.256;2023-06-24T10:44:48;73.13;;;67.18;;
19569;SDS011;9931;51.458;7.256;2023-06-24T10:47:14;80.22;;;72.20;;
19569;SDS011;9931;51.458;7.256;2023-06-24T10:49:39;75.37;;;65.97;;
19569;SDS011;9931;51.458;7.256;2023-06-24T10:52:04;72.13;;;65.07;;
19569;SDS011;9931;51.458;7.256;2023-06-24T10:54:32;61.97;;;56.72;;
19569;SDS011;9931;51.458;7.256;2023-06-24T10:56:57;58.22;;;53.45;;
19569;SDS011;9931;51.458;7.256;2023-06-24T10:59:22;59.35;;;54.42;;
19569;SDS011;9931;51.458;7.256;2023-06-24T11:01:53;57.10;;;52.87;;
19569;SDS011;9931;51.458;7.256;2023-06-24T11:04:19;61.95;;;56.80;;
19569;SDS011;9931;51.458;7.256;2023-06-24T11:06:56;68.28;;;63.35;;
19569;SDS011;9931;51.458;7.256;2023-06-24T11:09:22;71.38;;;65.25;;
19569;SDS011;9931;51.458;7.256;2023-06-24T11:11:47;62.63;;;56.60;;
19569;SDS011;9931;51.458;7.256;2023-06-24T11:14:12;72.72;;;65.40;;
19569;SDS011;9931;51.458;7.256;2023-06-24T11:16:38;69.60;;;62.42;;
19569;SDS011;9931;51.458;7.256;2023-06-24T11:19:04;75.78;;;70.15;;
19569;SDS011;9931;51.458;7.256;2023-06-24T11:21:30;105.03;;;97.78;;
19569;SDS011;9931;51.458;7.256;2023-06-24T11:24:02;116.93;;;109.82;;
19569;SDS011;9931;51.458;7.256;2023-06-24T11:26:27;107.32;;;100.45;;
19569;SDS011;9931;51.458;7.256;2023-06-24T11:28:52;121.63;;;113.20;;
19569;SDS011;9931;51.458;7.256;2023-06-24T11:31:18;119.93;;;113.90;;
19569;SDS011;9931;51.458;7.256;2023-06-24T11:33:47;116.47;;;108.55;;
19569;SDS011;9931;51.458;7.256;2023-06-24T11:36:13;112.40;;;105.60;;
19569;SDS011;9931;51.458;7.256;2023-06-24T11:38:41;126.13;;;118.20;;
19569;SDS011;9931;51.458;7.256;2023-06-24T11:41:06;146.30;;;137.57;;
19569;SDS011;9931;51.458;7.256;2023-06-24T11:43:32;162.25;;;151.80;;
19569;SDS011;9931;51.458;7.256;2023-06-24T11:45:58;153.45;;;143.85;;
19569;SDS011;9931;51.458;7.256;2023-06-24T11:48:26;123.40;;;115.82;;
19569;SDS011;9931;51.458;7.256;2023-06-24T11:50:54;140.05;;;131.45;;
19569;SDS011;9931;51.458;7.256;2023-06-24T11:53:29;139.57;;;129.98;;
19569;SDS011;9931;51.458;7.256;2023-06-24T11:55:55;140.18;;;130.18;;
19569;SDS011;9931;51.458;7.256;2023-06-24T11:58:21;138.48;;;129.50;;
19569;SDS011;9931;51.458;7.256;2023-06-24T12:00:46;115.50;;;108.40;;
19569;SDS011;9931;51.458;7.256;2023-06-24T12:03:13;108.88;;;101.22;;
19569;SDS011;9931;51.458;7.256;2023-06-24T12:05:39;121.35;;;109.57;;
19569;SDS011;9931;51.458;7.256;2023-06-24T12:08:10;116.80;;;109.90;;
19569;SDS011;9931;51.458;7.256;2023-06-24T12:10:36;159.77;;;148.60;;
19569;SDS011;9931;51.458;7.256;2023-06-24T12:13:02;149.23;;;139.73;;
19569;SDS011;9931;51.458;7.256;2023-06-24T12:15:28;160.80;;;150.25;;
19569;SDS011;9931;51.458;7.256;2023-06-24T12:17:53;165.02;;;156.18;;
19569;SDS011;9931;51.458;7.256;2023-06-24T12:20:18;159.38;;;150.30;;
19569;SDS011;9931;51.458;7.256;2023-06-24T12:22:44;171.88;;;161.77;;
19569;SDS011;9931;51.458;7.256;2023-06-24T12:25:10;169.63;;;159.65;;
19569;SDS011;9931;51.458;7.256;2023-06-24T12:27:35;170.60;;;160.30;;
19569;SDS011;9931;51.458;7.256;2023-06-24T12:30:01;147.98;;;139.35;;
19569;SDS011;9931;51.458;7.256;2023-06-24T12:32:26;145.57;;;137.20;;
19569;SDS011;9931;51.458;7.256;2023-06-24T12:34:52;153.30;;;144.35;;
19569;SDS011;9931;51.458;7.256;2023-06-24T12:37:17;165.35;;;154.88;;
19569;SDS011;9931;51.458;7.256;2023-06-24T12:39:42;159.63;;;149.90;;
19569;SDS011;9931;51.458;7.256;2023-06-24T12:42:08;160.75;;;150.38;;
19569;SDS011;9931;51.458;7.256;2023-06-24T12:44:33;158.13;;;148.07;;
19569;SDS011;9931;51.458;7.256;2023-06-24T12:46:58;180.03;;;170.17;;
19569;SDS011;9931;51.458;7.256;2023-06-24T12:49:23;166.03;;;156.00;;
19569;SDS011;9931;51.458;7.256;2023-06-24T12:51:48;141.00;;;131.47;;
19569;SDS011;9931;51.458;7.256;2023-06-24T12:54:14;151.53;;;142.63;;
19569;SDS011;9931;51.458;7.256;2023-06-24T12:56:39;142.57;;;133.60;;
19569;SDS011;9931;51.458;7.256;2023-06-24T12:59:04;169.17;;;158.43;;
19569;SDS011;9931;51.458;7.256;2023-06-24T13:01:30;169.45;;;158.80;;
19569;SDS011;9931;51.458;7.256;2023-06-24T13:03:56;163.43;;;153.50;;
19569;SDS011;9931;51.458;7.256;2023-06-24T13:06:21;146.50;;;137.63;;
19569;SDS011;9931;51.458;7.256;2023-06-24T13:08:46;160.63;;;149.47;;
19569;SDS011;9931;51.458;7.256;2023-06-24T13:11:12;154.93;;;145.93;;
19569;SDS011;9931;51.458;7.256;2023-06-24T13:13:37;136.93;;;128.35;;
19569;SDS011;9931;51.458;7.256;2023-06-24T13:16:02;138.37;;;131.03;;
19569;SDS011;9931;51.458;7.256;2023-06-24T13:18:28;136.47;;;129.47;;
19569;SDS011;9931;51.458;7.256;2023-06-24T13:20:53;142.30;;;133.17;;
19569;SDS011;9931;51.458;7.256;2023-06-24T13:23:18;130.53;;;122.83;;
19569;SDS011;9931;51.458;7.256;2023-06-24T13:25:43;133.43;;;121.77;;
19569;SDS011;9931;51.458;7.256;2023-06-24T13:28:08;140.15;;;131.05;;
19569;SDS011;9931;51.458;7.256;2023-06-24T13:30:34;140.57;;;132.13;;
19569;SDS011;9931;51.458;7.256;2023-06-24T13:32:59;129.02;;;121.68;;
19569;SDS011;9931;51.458;7.256;2023-06-24T13:35:24;139.40;;;131.60;;
19569;SDS011;9931;51.458;7.256;2023-06-24T13:37:50;129.07;;;122.33;;
19569;SDS011;9931;51.458;7.256;2023-06-24T13:40:15;127.32;;;119.30;;
19569;SDS011;9931;51.458;7.256;2023-06-24T13:42:40;110.70;;;104.15;;
19569;SDS011;9931;51.458;7.256;2023-06-24T13:45:06;102.70;;;96.13;;
19569;SDS011;9931;51.458;7.256;2023-06-24T13:47:31;102.63;;;95.80;;
19569;SDS011;9931;51.458;7.256;2023-06-24T13:49:56;99.85;;;93.57;;
19569;SDS011;9931;51.458;7.256;2023-06-24T13:52:22;81.25;;;76.90;;
19569;SDS011;9931;51.458;7.256;2023-06-24T13:54:47;81.88;;;76.80;;
19569;SDS011;9931;51.458;7.256;2023-06-24T13:57:13;91.53;;;83.60;;
19569;SDS011;9931;51.458;7.256;2023-06-24T13:59:38;89.05;;;83.72;;
19569;SDS011;9931;51.458;7.256;2023-06-24T14:02:04;83.55;;;78.50;;
19569;SDS011;9931;51.458;7.256;2023-06-24T14:04:29;80.15;;;74.50;;
19569;SDS011;9931;51.458;7.256;2023-06-24T14:06:54;77.10;;;73.10;;
19569;SDS011;9931;51.458;7.256;2023-06-24T14:09:20;74.65;;;69.20;;
19569;SDS011;9931;51.458;7.256;2023-06-24T14:11:45;75.47;;;70.60;;
19569;SDS011;9931;51.458;7.256;2023-06-24T14:14:10;75.67;;;69.97;;
19569;SDS011;9931;51.458;7.256;2023-06-24T14:16:35;62.50;;;57.57;;
19569;SDS011;9931;51.458;7.256;2023-06-24T14:19:01;61.17;;;55.83;;
19569;SDS011;9931;51.458;7.256;2023-06-24T14:21:26;66.20;;;62.13;;
19569;SDS011;9931;51.458;7.256;2023-06-24T14:23:51;60.85;;;56.08;;
19569;SDS011;9931;51.458;7.256;2023-06-24T14:26:16;61.73;;;57.00;;
19569;SDS011;9931;51.458;7.256;2023-06-24T14:28:41;67.35;;;61.60;;
19569;SDS011;9931;51.458;7.256;2023-06-24T14:31:07;63.63;;;58.33;;
19569;SDS011;9931;51.458;7.256;2023-06-24T14:33:32;62.73;;;57.77;;
19569;SDS011;9931;51.458;7.256;2023-06-24T14:35:57;66.82;;;60.47;;
19569;SDS011;9931;51.458;7.256;2023-06-24T14:38:22;60.10;;;55.27;;
19569;SDS011;9931;51.458;7.256;2023-06-24T14:40:48;56.33;;;52.00;;
19569;SDS011;9931;51.458;7.256;2023-06-24T14:43:13;54.28;;;51.30;;
19569;SDS011;9931;51.458;7.256;2023-06-24T14:45:38;91.18;;;59.75;;
19569;SDS011;9931;51.458;7.256;2023-06-24T14:48:03;57.90;;;53.70;;
19569;SDS011;9931;51.458;7.256;2023-06-24T14:50:28;59.13;;;53.20;;
19569;SDS011;9931;51.458;7.256;2023-06-24T14:52:54;62.17;;;56.67;;
19569;SDS011;9931;51.458;7.256;2023-06-24T14:55:19;58.15;;;52.67;;
19569;SDS011;9931;51.458;7.256;2023-06-24T14:57:44;60.65;;;55.05;;